createdAt,value
2019-02-16T00:00:18.075Z,5.20
2019-02-16T00:02:55.811Z,5.73
2019-02-16T00:05:32.335Z,6.20
2019-02-16T00:08:13.223Z,5.70
2019-02-16T00:10:49.001Z,5.80
2019-02-16T00:13:27.181Z,5.60
2019-02-16T00:16:03.929Z,5.43
2019-02-16T00:18:46.758Z,5.53
2019-02-16T00:21:22.511Z,6.67
2019-02-16T00:23:57.609Z,4.97
2019-02-16T00:26:32.637Z,5.83
2019-02-16T00:38:13.835Z,6.43
2019-02-16T00:40:48.849Z,6.33
2019-02-16T00:43:25.031Z,6.20
2019-02-16T00:46:00.797Z,5.73
2019-02-16T00:48:36.899Z,5.50
2019-02-16T00:51:13.950Z,5.03
2019-02-16T00:53:50.593Z,5.20
2019-02-16T00:56:25.441Z,5.47
2019-02-16T00:59:01.251Z,5.10
2019-02-16T01:01:36.216Z,5.50
2019-02-16T01:08:33.210Z,5.60
2019-02-16T01:11:08.087Z,5.10
2019-02-16T01:13:43.712Z,5.40
2019-02-16T01:48:29.568Z,5.40
2019-02-16T02:36:06.905Z,4.90
2019-02-16T02:42:20.694Z,4.70
2019-02-16T02:45:50.585Z,4.43
2019-02-16T03:47:51.742Z,5.47
2019-02-16T03:57:44.868Z,4.63
2019-02-16T04:00:37.820Z,5.07
2019-02-16T04:06:33.311Z,4.37
2019-02-16T04:09:21.269Z,4.70
2019-02-16T04:12:08.651Z,5.23
2019-02-16T04:26:23.230Z,3.90
2019-02-16T04:29:22.347Z,4.50
2019-02-16T04:31:57.160Z,4.70
2019-02-16T04:35:09.571Z,4.60
2019-02-16T04:37:58.344Z,5.63
2019-02-16T04:40:50.018Z,5.03
2019-02-16T04:43:37.575Z,4.77
2019-02-16T04:46:22.602Z,4.70
2019-02-16T04:49:05.466Z,4.10
2019-02-16T04:52:08.576Z,4.37
2019-02-16T04:58:24.287Z,4.30
2019-02-16T05:01:00.525Z,4.47
2019-02-16T05:03:36.176Z,4.30
2019-02-16T05:06:44.883Z,4.20
2019-02-16T05:09:34.120Z,4.37
2019-02-16T05:12:23.940Z,5.10
2019-02-16T05:14:59.533Z,4.27
2019-02-16T05:17:47.178Z,4.50
2019-02-16T05:20:36.850Z,4.73
2019-02-16T05:23:27.520Z,4.53
2019-02-16T05:26:03.139Z,4.40
2019-02-16T05:28:53.093Z,5.43
2019-02-16T05:32:09.796Z,4.90
2019-02-16T05:34:45.392Z,4.30
2019-02-16T05:37:33.561Z,5.77
2019-02-16T05:40:23.444Z,6.30
2019-02-16T05:43:14.211Z,5.40
2019-02-16T05:46:03.362Z,5.87
2019-02-16T05:48:51.153Z,5.43
2019-02-16T05:51:40.636Z,4.80
2019-02-16T05:54:29.803Z,5.30
2019-02-16T05:57:05.630Z,5.53
2019-02-16T05:59:55.963Z,5.50
2019-02-16T06:02:31.574Z,5.33
2019-02-16T06:09:01.125Z,5.30
2019-02-16T06:12:02.287Z,5.70
2019-02-16T06:19:02.854Z,4.87
2019-02-16T06:25:39.083Z,5.60
2019-02-16T06:28:27.994Z,5.70
2019-02-16T06:31:16.214Z,4.50
2019-02-16T06:34:05.233Z,4.30
2019-02-16T06:36:59.118Z,5.80
2019-02-16T06:39:50.672Z,4.87
2019-02-16T06:42:35.886Z,5.17
2019-02-16T06:45:33.597Z,5.67
2019-02-16T06:48:24.814Z,5.93
2019-02-16T06:51:12.808Z,6.00
2019-02-16T06:54:01.660Z,5.63
2019-02-16T07:11:09.707Z,4.97
2019-02-16T07:13:44.654Z,5.53
2019-02-16T07:24:47.012Z,6.10
2019-02-16T07:27:23.044Z,5.57
2019-02-16T07:30:03.087Z,6.17
2019-02-16T07:36:36.280Z,5.60
2019-02-16T07:39:13.926Z,5.80
2019-02-16T07:41:49.826Z,5.83
2019-02-16T07:44:33.972Z,5.90
2019-02-16T07:47:43.078Z,6.00
2019-02-16T07:50:27.594Z,5.90
2019-02-16T07:53:31.278Z,6.10
2019-02-16T07:56:10.910Z,5.93
2019-02-16T07:59:03.612Z,6.00
2019-02-16T08:01:45.612Z,5.97
2019-02-16T08:04:43.534Z,6.13
2019-02-16T08:07:44.414Z,6.20
2019-02-16T08:10:47.652Z,6.63
2019-02-16T08:13:29.777Z,6.53
2019-02-16T08:16:34.613Z,6.00
2019-02-16T08:19:26.274Z,6.30
2019-02-16T08:22:10.606Z,6.77
2019-02-16T08:28:45.380Z,6.10
2019-02-16T08:31:39.724Z,7.30
2019-02-16T08:34:46.192Z,6.87
2019-02-16T08:37:40.972Z,7.03
2019-02-16T08:40:34.950Z,7.00
2019-02-16T08:43:29.138Z,7.33
2019-02-16T08:46:21.739Z,7.47
2019-02-16T08:49:13.744Z,7.13
2019-02-16T08:52:07.399Z,6.53
2019-02-16T08:55:02.827Z,7.87
2019-02-16T08:58:09.401Z,7.63
2019-02-16T09:01:07.821Z,7.13
2019-02-16T09:04:12.609Z,7.93
2019-02-16T09:06:57.580Z,7.40
2019-02-16T09:10:02.282Z,7.10
2019-02-16T09:12:55.133Z,7.93
2019-02-16T09:15:51.991Z,7.10
2019-02-16T09:18:45.101Z,7.43
2019-02-16T09:21:37.683Z,7.73
2019-02-16T09:24:22.110Z,8.10
2019-02-16T09:27:13.920Z,8.40
2019-02-16T09:30:07.532Z,8.43
2019-02-16T09:32:48.443Z,9.07
2019-02-16T09:35:54.295Z,8.73
2019-02-16T09:38:44.945Z,8.63
2019-02-16T09:41:38.444Z,8.70
2019-02-16T09:44:22.377Z,7.80
2019-02-16T09:47:15.729Z,9.13
2019-02-16T09:50:14.387Z,9.10
2019-02-16T09:53:06.808Z,8.77
2019-02-16T09:56:03.298Z,9.43
2019-02-16T09:58:51.021Z,8.80
2019-02-16T10:01:40.833Z,9.40
2019-02-16T10:04:34.493Z,9.10
2019-02-16T10:07:44.233Z,8.50
2019-02-16T10:10:34.571Z,8.70
2019-02-16T10:13:20.657Z,9.47
2019-02-16T10:16:29.959Z,10.50
2019-02-16T10:19:36.124Z,9.60
2019-02-16T10:22:29.927Z,10.47
2019-02-16T10:25:22.991Z,9.20
2019-02-16T10:28:10.945Z,9.93
2019-02-16T10:31:07.432Z,9.80
2019-02-16T10:33:52.064Z,9.13
2019-02-16T10:36:48.898Z,10.50
2019-02-16T10:39:49.490Z,9.70
2019-02-16T10:42:34.748Z,10.80
2019-02-16T10:45:28.906Z,10.13
2019-02-16T10:48:34.306Z,9.90
2019-02-16T10:51:21.661Z,8.73
2019-02-16T10:54:27.005Z,10.37
2019-02-16T10:57:14.237Z,10.13
2019-02-16T11:00:16.786Z,11.50
2019-02-16T11:03:13.517Z,10.77
2019-02-16T11:06:00.845Z,10.80
2019-02-16T11:09:00.627Z,11.07
2019-02-16T11:12:00.805Z,10.03
2019-02-16T11:14:52.913Z,10.23
2019-02-16T11:17:58.893Z,10.90
2019-02-16T11:20:52.602Z,10.17
2019-02-16T11:24:01.734Z,11.13
2019-02-16T11:27:04.628Z,10.50
2019-02-16T11:30:02.293Z,11.20
2019-02-16T11:32:44.019Z,10.63
2019-02-16T11:35:36.237Z,11.27
2019-02-16T11:38:28.888Z,11.00
2019-02-16T11:41:21.525Z,11.07
2019-02-16T11:44:14.251Z,11.23
2019-02-16T11:46:56.447Z,10.40
2019-02-16T11:49:53.441Z,10.53
2019-02-16T11:53:02.544Z,11.90
2019-02-16T11:55:54.561Z,11.77
2019-02-16T11:58:43.111Z,11.60
2019-02-16T12:01:35.556Z,11.30
2019-02-16T12:04:17.219Z,10.80
2019-02-16T12:06:59.225Z,10.80
2019-02-16T12:10:00.842Z,12.67
2019-02-16T12:12:50.880Z,11.53
2019-02-16T12:15:38.691Z,11.07
2019-02-16T12:18:28.766Z,11.57
2019-02-16T12:21:21.540Z,11.17
2019-02-16T12:24:12.345Z,11.43
2019-02-16T12:26:58.451Z,12.07
2019-02-16T12:29:52.175Z,12.33
2019-02-16T12:32:44.689Z,11.50
2019-02-16T12:35:42.630Z,10.87
2019-02-16T12:38:37.577Z,12.60
2019-02-16T12:41:31.435Z,11.00
2019-02-16T12:44:34.302Z,11.67
2019-02-16T12:47:26.919Z,10.63
2019-02-16T12:50:23.968Z,10.83
2019-02-16T12:53:19.047Z,11.20
2019-02-16T12:56:15.190Z,11.30
2019-02-16T12:59:02.051Z,11.73
2019-02-16T13:01:47.830Z,11.50
2019-02-16T13:04:40.382Z,10.43
2019-02-16T13:07:35.287Z,11.10
2019-02-16T13:10:44.019Z,10.77
2019-02-16T13:13:46.991Z,11.67
2019-02-16T13:16:52.793Z,11.50
2019-02-16T13:19:48.999Z,11.90
2019-02-16T13:22:34.423Z,10.47
2019-02-16T13:25:27.005Z,11.10
2019-02-16T13:28:35.833Z,11.40
2019-02-16T13:31:38.282Z,10.53
2019-02-16T13:34:31.945Z,10.97
2019-02-16T13:37:39.035Z,11.20
2019-02-16T13:40:31.622Z,9.90
2019-02-16T13:43:24.129Z,10.93
2019-02-16T13:46:16.717Z,10.90
2019-02-16T13:48:57.593Z,11.30
2019-02-16T13:51:53.965Z,11.13
2019-02-16T13:54:35.228Z,11.03
2019-02-16T13:57:23.799Z,11.70
2019-02-16T14:00:11.405Z,11.20
2019-02-16T14:03:03.899Z,11.40
2019-02-16T14:06:03.591Z,10.67
2019-02-16T14:08:57.414Z,12.10
2019-02-16T14:11:54.088Z,11.20
2019-02-16T14:14:35.259Z,11.80
2019-02-16T14:17:29.011Z,11.30
2019-02-16T14:20:03.851Z,10.37
2019-02-16T14:22:38.762Z,10.70
2019-02-16T14:25:19.510Z,9.83
2019-02-16T14:27:54.388Z,11.03
2019-02-16T14:30:29.249Z,11.03
2019-02-16T14:33:04.056Z,10.87
2019-02-16T14:35:39.041Z,10.97
2019-02-16T14:38:38.800Z,9.70
2019-02-16T14:41:14.125Z,11.40
2019-02-16T14:43:49.808Z,9.40
2019-02-16T14:46:24.624Z,10.30
2019-02-16T14:49:01.117Z,10.70
2019-02-16T14:51:36.328Z,10.40
2019-02-16T14:54:11.392Z,9.13
2019-02-16T14:56:46.174Z,10.00
2019-02-16T14:59:21.804Z,10.27
2019-02-16T15:01:56.560Z,11.03
2019-02-16T15:04:31.575Z,10.40
2019-02-16T15:07:06.447Z,10.30
2019-02-16T15:09:41.241Z,10.10
2019-02-16T15:12:16.004Z,9.70
2019-02-16T15:14:50.774Z,10.40
2019-02-16T15:17:25.666Z,10.00
2019-02-16T15:20:00.455Z,10.93
2019-02-16T15:22:35.468Z,10.33
2019-02-16T15:25:11.278Z,10.00
2019-02-16T15:27:46.103Z,10.50
2019-02-16T15:30:20.957Z,10.50
2019-02-16T15:32:55.738Z,11.07
2019-02-16T15:35:30.604Z,10.53
2019-02-16T15:38:17.994Z,11.07
2019-02-16T15:40:55.710Z,10.70
2019-02-16T15:43:30.819Z,12.43
2019-02-16T15:46:05.782Z,12.03
2019-02-16T15:48:40.600Z,10.70
2019-02-16T15:51:15.392Z,11.30
2019-02-16T15:53:50.621Z,11.20
2019-02-16T15:56:25.512Z,11.47
2019-02-16T15:59:00.489Z,11.50
2019-02-16T16:01:35.489Z,11.87
2019-02-16T16:04:11.168Z,10.83
2019-02-16T16:06:46.956Z,11.40
2019-02-16T16:09:44.769Z,11.87
2019-02-16T16:12:42.970Z,11.13
2019-02-16T16:15:28.344Z,12.10
2019-02-16T16:18:22.656Z,12.57
2019-02-16T16:21:11.306Z,11.33
2019-02-16T16:24:03.904Z,11.07
2019-02-16T16:26:52.920Z,11.50
2019-02-16T16:29:45.466Z,11.27
2019-02-16T16:32:48.321Z,11.07
2019-02-16T16:35:48.646Z,11.57
2019-02-16T16:38:52.192Z,12.20
2019-02-16T16:41:44.141Z,11.50
2019-02-16T16:44:36.790Z,11.17
2019-02-16T16:47:39.301Z,11.50
2019-02-16T16:50:31.755Z,11.40
2019-02-16T16:53:13.069Z,12.53
2019-02-16T16:55:56.324Z,11.37
2019-02-16T16:59:00.204Z,12.17
2019-02-16T17:01:49.975Z,12.30
2019-02-16T17:04:47.316Z,12.43
2019-02-16T17:07:32.538Z,11.37
2019-02-16T17:10:29.754Z,12.57
2019-02-16T17:13:17.916Z,12.73
2019-02-16T17:16:11.666Z,11.40
2019-02-16T17:19:08.204Z,12.40
2019-02-16T17:21:52.345Z,12.03
2019-02-16T17:24:44.640Z,13.17
2019-02-16T17:27:44.434Z,13.00
2019-02-16T17:30:38.054Z,12.13
2019-02-16T17:33:20.083Z,12.87
2019-02-16T17:36:02.734Z,14.10
2019-02-16T17:39:11.428Z,14.20
2019-02-16T17:42:05.156Z,12.57
2019-02-16T17:44:57.398Z,13.33
2019-02-16T17:47:56.932Z,14.27
2019-02-16T17:50:50.944Z,13.53
2019-02-16T17:53:43.355Z,13.40
2019-02-16T17:56:30.554Z,14.07
2019-02-16T17:59:20.186Z,13.17
2019-02-16T18:02:06.451Z,13.90
2019-02-16T18:05:12.406Z,14.37
2019-02-16T18:08:05.598Z,15.47
2019-02-16T18:10:52.224Z,14.77
2019-02-16T18:13:51.990Z,15.80
2019-02-16T18:16:32.379Z,15.60
2019-02-16T18:19:13.092Z,15.83
2019-02-16T18:21:56.299Z,16.20
2019-02-16T18:24:52.986Z,16.97
2019-02-16T18:27:44.954Z,16.87
2019-02-16T18:30:37.150Z,15.67
2019-02-16T18:33:34.834Z,15.57
2019-02-16T18:36:14.440Z,15.43
2019-02-16T18:39:20.088Z,15.63
2019-02-16T18:42:13.825Z,15.70
2019-02-16T18:45:04.849Z,15.20
2019-02-16T18:47:54.322Z,15.07
2019-02-16T18:50:47.681Z,16.00
2019-02-16T18:53:50.478Z,14.97
2019-02-16T18:56:37.186Z,14.30
2019-02-16T18:59:28.510Z,15.73
2019-02-16T19:02:25.475Z,16.40
2019-02-16T19:05:21.008Z,14.57
2019-02-16T19:08:15.969Z,15.17
2019-02-16T19:11:00.313Z,15.87
2019-02-16T19:13:57.833Z,15.70
2019-02-16T19:16:50.546Z,15.83
2019-02-16T19:19:45.486Z,16.73
2019-02-16T19:22:54.512Z,17.10
2019-02-16T19:25:43.677Z,15.67
2019-02-16T19:28:37.322Z,17.10
2019-02-16T19:34:56.128Z,15.90
2019-02-16T19:37:45.705Z,17.23
2019-02-16T19:40:29.887Z,16.87
2019-02-16T19:43:39.659Z,16.53
2019-02-16T19:46:47.428Z,16.70
2019-02-16T19:49:42.750Z,16.83
2019-02-16T19:52:36.374Z,16.97
2019-02-16T19:55:42.500Z,15.90
2019-02-16T19:58:43.661Z,15.53
2019-02-16T20:01:28.611Z,16.43
2019-02-16T20:04:32.504Z,16.60
2019-02-16T20:07:29.177Z,16.30
2019-02-16T20:10:14.097Z,17.20
2019-02-16T20:13:07.790Z,16.10
2019-02-16T20:15:49.468Z,18.80
2019-02-16T20:18:36.516Z,18.20
2019-02-16T20:21:26.520Z,17.17
2019-02-16T20:24:38.070Z,18.63
2019-02-16T20:27:37.375Z,17.30
2019-02-16T20:30:28.951Z,16.90
2019-02-16T20:33:18.667Z,17.10
2019-02-16T20:36:12.843Z,18.40
2019-02-16T20:39:12.512Z,17.70
2019-02-16T20:42:30.476Z,18.77
2019-02-16T20:45:23.103Z,19.20
2019-02-16T20:48:15.695Z,18.10
2019-02-16T20:51:18.550Z,19.13
2019-02-16T20:54:15.356Z,21.87
2019-02-16T20:57:12.722Z,22.57
2019-02-16T21:00:04.711Z,21.60
2019-02-16T21:02:46.284Z,24.10
2019-02-16T21:05:43.066Z,27.40
2019-02-16T21:08:30.970Z,26.93
2019-02-16T21:11:15.933Z,29.80
2019-02-16T21:14:09.254Z,32.17
2019-02-16T21:17:02.609Z,31.83
2019-02-16T21:19:59.286Z,29.67
2019-02-16T21:22:47.119Z,28.83
2019-02-16T21:25:49.755Z,27.77
2019-02-16T21:28:44.257Z,27.40
2019-02-16T21:34:50.683Z,28.07
2019-02-16T21:37:45.337Z,26.10
2019-02-16T21:40:45.311Z,26.30
2019-02-16T21:43:34.173Z,27.47
2019-02-16T21:46:28.859Z,24.87
2019-02-16T21:49:24.751Z,23.37
2019-02-16T21:52:25.682Z,23.37
2019-02-16T21:55:24.192Z,23.80
2019-02-16T21:58:08.881Z,23.60
2019-02-16T22:01:04.657Z,22.07
2019-02-16T22:03:57.717Z,23.63
2019-02-16T22:06:52.207Z,22.43
2019-02-16T22:09:38.209Z,21.37
2019-02-16T22:15:52.413Z,20.37
2019-02-16T22:18:27.272Z,20.00
2019-02-16T22:21:02.919Z,21.13
2019-02-16T22:23:38.545Z,20.03
2019-02-16T22:26:13.448Z,20.57
2019-02-16T22:28:49.091Z,20.10
2019-02-16T22:31:24.003Z,20.83
2019-02-16T22:33:58.881Z,20.10
2019-02-16T22:36:33.711Z,21.03
2019-02-16T22:39:15.545Z,19.53
2019-02-16T22:41:51.351Z,21.20
2019-02-16T22:44:26.155Z,19.10
2019-02-16T22:47:01.059Z,20.53
2019-02-16T22:49:35.829Z,20.90
2019-02-16T22:52:12.272Z,20.13
2019-02-16T22:54:47.481Z,21.13
2019-02-16T22:57:22.296Z,21.13
2019-02-16T22:59:57.915Z,21.97
2019-02-16T23:02:35.953Z,19.90
2019-02-16T23:05:13.251Z,21.07
2019-02-16T23:07:49.212Z,20.10
2019-02-16T23:10:24.877Z,20.07
2019-02-16T23:13:00.528Z,20.03
2019-02-16T23:15:36.304Z,20.60
2019-02-16T23:18:11.090Z,20.90
2019-02-16T23:20:47.806Z,19.63
2019-02-16T23:23:22.775Z,20.70
2019-02-16T23:26:10.647Z,20.30
2019-02-16T23:28:45.403Z,20.07
2019-02-16T23:31:21.114Z,21.03
2019-02-16T23:33:56.954Z,19.80
2019-02-16T23:36:39.717Z,20.10
2019-02-16T23:39:15.509Z,20.30
2019-02-16T23:42:05.651Z,19.27
2019-02-16T23:44:40.358Z,21.27
2019-02-16T23:47:15.012Z,20.20
2019-02-16T23:49:50.732Z,21.23
2019-02-16T23:52:47.062Z,20.57
2019-02-16T23:55:22.742Z,19.77
2019-02-16T23:57:58.451Z,20.23
